sensor_id;sensor_type;location;lat;lon;timestamp;temperature;humidity
3312;DHT22;1668;49.648;8.570;2023-02-28T00:01:21;0.20;1.00
3312;DHT22;1668;49.648;8.570;2023-02-28T00:03:48;0.20;1.00
3312;DHT22;1668;49.648;8.570;2023-02-28T00:06:15;0.20;1.00
3312;DHT22;1668;49.648;8.570;2023-02-28T00:08:43;0.20;1.00
3312;DHT22;1668;49.648;8.570;2023-02-28T00:11:13;0.20;1.00
3312;DHT22;1668;49.648;8.570;2023-02-28T00:13:42;0.20;1.00
3312;DHT22;1668;49.648;8.570;2023-02-28T00:16:13;0.20;1.00
3312;DHT22;1668;49.648;8.570;2023-02-28T00:18:40;0.10;1.00
3312;DHT22;1668;49.648;8.570;2023-02-28T00:21:08;0.10;1.00
3312;DHT22;1668;49.648;8.570;2023-02-28T00:23:35;0.10;1.00
3312;DHT22;1668;49.648;8.570;2023-02-28T00:26:04;0.10;1.00
3312;DHT22;1668;49.648;8.570;2023-02-28T00:28:31;0.10;1.00
3312;DHT22;1668;49.648;8.570;2023-02-28T00:30:58;0.00;1.00
3312;DHT22;1668;49.648;8.570;2023-02-28T00:33:25;0.00;1.00
3312;DHT22;1668;49.648;8.570;2023-02-28T00:35:54;0.00;2.10
3312;DHT22;1668;49.648;8.570;2023-02-28T00:38:27;-0.10;10.50
3312;DHT22;1668;49.648;8.570;2023-02-28T00:40:53;-0.10;23.60
3312;DHT22;1668;49.648;8.570;2023-02-28T00:43:22;-0.10;55.90
3312;DHT22;1668;49.648;8.570;2023-02-28T00:45:48;-0.10;50.20
3312;DHT22;1668;49.648;8.570;2023-02-28T00:48:15;-0.10;70.10
3312;DHT22;1668;49.648;8.570;2023-02-28T00:50:42;-0.20;73.60
3312;DHT22;1668;49.648;8.570;2023-02-28T00:53:09;-0.20;93.20
3312;DHT22;1668;49.648;8.570;2023-02-28T00:55:36;-0.20;99.90
3312;DHT22;1668;49.648;8.570;2023-02-28T00:58:03;-0.20;95.30
3312;DHT22;1668;49.648;8.570;2023-02-28T01:00:31;-0.20;99.90
3312;DHT22;1668;49.648;8.570;2023-02-28T01:02:58;-0.20;99.90
3312;DHT22;1668;49.648;8.570;2023-02-28T01:05:25;-0.20;99.90
3312;DHT22;1668;49.648;8.570;2023-02-28T01:07:51;-0.20;99.90
3312;DHT22;1668;49.648;8.570;2023-02-28T01:10:18;-0.30;99.90
3312;DHT22;1668;49.648;8.570;2023-02-28T01:12:46;-0.30;99.90
3312;DHT22;1668;49.648;8.570;2023-02-28T01:15:13;-0.30;99.90
3312;DHT22;1668;49.648;8.570;2023-02-28T01:21:05;-0.30;99.90
3312;DHT22;1668;49.648;8.570;2023-02-28T01:23:32;-0.20;99.90
3312;DHT22;1668;49.648;8.570;2023-02-28T01:26:04;-0.30;99.90
3312;DHT22;1668;49.648;8.570;2023-02-28T01:28:31;-0.30;99.90
3312;DHT22;1668;49.648;8.570;2023-02-28T01:30:58;-0.30;99.90
3312;DHT22;1668;49.648;8.570;2023-02-28T01:33:25;-0.40;99.90
3312;DHT22;1668;49.648;8.570;2023-02-28T01:35:57;-0.40;99.90
3312;DHT22;1668;49.648;8.570;2023-02-28T01:38:25;-0.40;99.90
3312;DHT22;1668;49.648;8.570;2023-02-28T01:40:53;-0.40;99.90
3312;DHT22;1668;49.648;8.570;2023-02-28T01:43:22;-0.40;99.90
3312;DHT22;1668;49.648;8.570;2023-02-28T01:45:49;-0.40;99.90
3312;DHT22;1668;49.648;8.570;2023-02-28T01:48:17;-0.40;99.90
3312;DHT22;1668;49.648;8.570;2023-02-28T01:50:45;-0.40;99.90
3312;DHT22;1668;49.648;8.570;2023-02-28T01:53:15;-0.50;99.90
3312;DHT22;1668;49.648;8.570;2023-02-28T01:55:47;-0.50;99.90
3312;DHT22;1668;49.648;8.570;2023-02-28T01:58:15;-0.40;99.90
3312;DHT22;1668;49.648;8.570;2023-02-28T02:00:42;-0.50;99.90
3312;DHT22;1668;49.648;8.570;2023-02-28T02:03:12;-0.50;99.90
3312;DHT22;1668;49.648;8.570;2023-02-28T02:05:41;-0.50;99.90
3312;DHT22;1668;49.648;8.570;2023-02-28T02:08:17;-0.50;99.90
3312;DHT22;1668;49.648;8.570;2023-02-28T02:10:47;-0.50;99.90
3312;DHT22;1668;49.648;8.570;2023-02-28T02:13:25;-0.60;99.90
3312;DHT22;1668;49.648;8.570;2023-02-28T02:16:03;-0.60;99.90
3312;DHT22;1668;49.648;8.570;2023-02-28T02:18:34;-0.60;99.90
3312;DHT22;1668;49.648;8.570;2023-02-28T02:21:37;-0.70;99.90
3312;DHT22;1668;49.648;8.570;2023-02-28T02:27:23;-0.60;99.90
3312;DHT22;1668;49.648;8.570;2023-02-28T02:30:09;-0.60;99.90
3312;DHT22;1668;49.648;8.570;2023-02-28T02:33:05;-0.70;99.90
3312;DHT22;1668;49.648;8.570;2023-02-28T02:35:42;-0.70;99.90
3312;DHT22;1668;49.648;8.570;2023-02-28T02:38:19;-0.70;99.90
3312;DHT22;1668;49.648;8.570;2023-02-28T02:40:55;-0.70;99.90
3312;DHT22;1668;49.648;8.570;2023-02-28T02:43:26;-0.70;1.00
3312;DHT22;1668;49.648;8.570;2023-02-28T02:45:59;-0.70;1.00
3312;DHT22;1668;49.648;8.570;2023-02-28T02:48:31;-0.70;1.00
3312;DHT22;1668;49.648;8.570;2023-02-28T02:51:05;-0.70;1.00
3312;DHT22;1668;49.648;8.570;2023-02-28T02:53:41;-0.70;1.00
3312;DHT22;1668;49.648;8.570;2023-02-28T02:56:10;-0.70;1.00
3312;DHT22;1668;49.648;8.570;2023-02-28T02:58:41;-0.80;1.00
3312;DHT22;1668;49.648;8.570;2023-02-28T03:01:12;-0.80;1.00
3312;DHT22;1668;49.648;8.570;2023-02-28T03:03:41;-0.80;1.00
3312;DHT22;1668;49.648;8.570;2023-02-28T03:06:10;-0.80;1.00
3312;DHT22;1668;49.648;8.570;2023-02-28T03:08:37;-0.80;1.00
3312;DHT22;1668;49.648;8.570;2023-02-28T03:11:06;-0.80;1.00
3312;DHT22;1668;49.648;8.570;2023-02-28T03:13:48;-0.80;1.00
3312;DHT22;1668;49.648;8.570;2023-02-28T03:16:32;-0.80;1.00
3312;DHT22;1668;49.648;8.570;2023-02-28T03:19:17;-0.90;1.00
3312;DHT22;1668;49.648;8.570;2023-02-28T03:21:53;-0.80;1.00
3312;DHT22;1668;49.648;8.570;2023-02-28T03:24:26;-0.90;1.00
3312;DHT22;1668;49.648;8.570;2023-02-28T03:26:57;-0.90;1.00
3312;DHT22;1668;49.648;8.570;2023-02-28T03:29:31;-0.90;1.00
3312;DHT22;1668;49.648;8.570;2023-02-28T03:32:04;-0.90;1.00
3312;DHT22;1668;49.648;8.570;2023-02-28T03:34:35;-0.90;1.00
3312;DHT22;1668;49.648;8.570;2023-02-28T03:37:08;-0.90;1.00
3312;DHT22;1668;49.648;8.570;2023-02-28T03:39:39;-0.90;1.00
3312;DHT22;1668;49.648;8.570;2023-02-28T03:42:09;-0.90;1.00
3312;DHT22;1668;49.648;8.570;2023-02-28T03:44:40;-0.90;1.00
3312;DHT22;1668;49.648;8.570;2023-02-28T03:47:10;-0.90;1.00
3312;DHT22;1668;49.648;8.570;2023-02-28T03:49:41;-1.00;1.00
3312;DHT22;1668;49.648;8.570;2023-02-28T03:52:11;-1.00;1.00
3312;DHT22;1668;49.648;8.570;2023-02-28T03:54:42;-1.00;1.00
3312;DHT22;1668;49.648;8.570;2023-02-28T03:57:15;-1.00;1.00
3312;DHT22;1668;49.648;8.570;2023-02-28T03:59:48;-1.00;1.00
3312;DHT22;1668;49.648;8.570;2023-02-28T04:02:16;-1.00;1.00
3312;DHT22;1668;49.648;8.570;2023-02-28T04:04:44;-1.00;1.00
3312;DHT22;1668;49.648;8.570;2023-02-28T04:07:15;-1.00;1.00
3312;DHT22;1668;49.648;8.570;2023-02-28T04:09:43;-1.00;1.00
3312;DHT22;1668;49.648;8.570;2023-02-28T04:12:10;-1.00;1.00
3312;DHT22;1668;49.648;8.570;2023-02-28T04:14:37;-1.00;1.00
3312;DHT22;1668;49.648;8.570;2023-02-28T04:17:04;-1.00;1.00
3312;DHT22;1668;49.648;8.570;2023-02-28T04:19:31;-1.00;1.00
3312;DHT22;1668;49.648;8.570;2023-02-28T04:21:58;-1.00;1.00
3312;DHT22;1668;49.648;8.570;2023-02-28T04:24:27;-1.10;1.00
3312;DHT22;1668;49.648;8.570;2023-02-28T04:26:56;-1.10;1.00
3312;DHT22;1668;49.648;8.570;2023-02-28T04:29:24;-1.00;1.00
3312;DHT22;1668;49.648;8.570;2023-02-28T04:31:52;-1.10;1.00
3312;DHT22;1668;49.648;8.570;2023-02-28T04:34:20;-1.10;1.00
3312;DHT22;1668;49.648;8.570;2023-02-28T04:36:47;-1.10;1.00
3312;DHT22;1668;49.648;8.570;2023-02-28T04:42:39;-1.10;1.00
3312;DHT22;1668;49.648;8.570;2023-02-28T04:45:07;-1.20;1.00
3312;DHT22;1668;49.648;8.570;2023-02-28T04:47:35;-1.20;1.00
3312;DHT22;1668;49.648;8.570;2023-02-28T04:50:02;-1.20;1.00
3312;DHT22;1668;49.648;8.570;2023-02-28T04:52:30;-1.20;1.00
3312;DHT22;1668;49.648;8.570;2023-02-28T04:58:20;-1.20;1.00
3312;DHT22;1668;49.648;8.570;2023-02-28T05:00:48;-1.20;1.00
3312;DHT22;1668;49.648;8.570;2023-02-28T05:03:15;-1.20;1.00
3312;DHT22;1668;49.648;8.570;2023-02-28T05:05:42;-1.20;1.00
3312;DHT22;1668;49.648;8.570;2023-02-28T05:08:09;-1.30;1.00
3312;DHT22;1668;49.648;8.570;2023-02-28T05:10:36;-1.30;1.00
3312;DHT22;1668;49.648;8.570;2023-02-28T05:13:03;-1.30;1.00
3312;DHT22;1668;49.648;8.570;2023-02-28T05:15:31;-1.30;18.80
3312;DHT22;1668;49.648;8.570;2023-02-28T05:17:58;-1.20;7.10
3312;DHT22;1668;49.648;8.570;2023-02-28T05:20:25;-1.30;23.40
3312;DHT22;1668;49.648;8.570;2023-02-28T05:22:52;-1.20;23.70
3312;DHT22;1668;49.648;8.570;2023-02-28T05:25:20;-1.30;21.10
3312;DHT22;1668;49.648;8.570;2023-02-28T05:27:48;-1.30;95.00
3312;DHT22;1668;49.648;8.570;2023-02-28T05:30:15;-1.30;57.30
3312;DHT22;1668;49.648;8.570;2023-02-28T05:32:43;-1.30;42.30
3312;DHT22;1668;49.648;8.570;2023-02-28T05:35:11;-1.30;91.30
3312;DHT22;1668;49.648;8.570;2023-02-28T05:37:38;-1.30;99.90
3312;DHT22;1668;49.648;8.570;2023-02-28T05:43:35;-1.30;99.90
3312;DHT22;1668;49.648;8.570;2023-02-28T05:46:03;-1.30;99.90
3312;DHT22;1668;49.648;8.570;2023-02-28T05:48:32;-1.30;81.30
3312;DHT22;1668;49.648;8.570;2023-02-28T05:50:59;-1.30;62.10
3312;DHT22;1668;49.648;8.570;2023-02-28T05:53:26;-1.30;67.30
3312;DHT22;1668;49.648;8.570;2023-02-28T05:55:53;-1.30;33.60
3312;DHT22;1668;49.648;8.570;2023-02-28T05:58:20;-1.30;26.90
3312;DHT22;1668;49.648;8.570;2023-02-28T06:00:48;-1.30;30.00
3312;DHT22;1668;49.648;8.570;2023-02-28T06:03:15;-1.30;50.30
3312;DHT22;1668;49.648;8.570;2023-02-28T06:05:43;-1.30;32.80
3312;DHT22;1668;49.648;8.570;2023-02-28T06:11:32;-1.30;39.70
3312;DHT22;1668;49.648;8.570;2023-02-28T06:14:00;-1.30;27.80
3312;DHT22;1668;49.648;8.570;2023-02-28T06:16:28;-1.30;1.00
3312;DHT22;1668;49.648;8.570;2023-02-28T06:18:57;-1.30;1.00
3312;DHT22;1668;49.648;8.570;2023-02-28T06:21:25;-1.30;1.00
3312;DHT22;1668;49.648;8.570;2023-02-28T06:23:53;-1.20;1.00
3312;DHT22;1668;49.648;8.570;2023-02-28T06:26:20;-1.20;1.00
3312;DHT22;1668;49.648;8.570;2023-02-28T06:28:47;-1.20;1.00
3312;DHT22;1668;49.648;8.570;2023-02-28T06:31:16;-1.20;1.00
3312;DHT22;1668;49.648;8.570;2023-02-28T06:33:44;-1.20;1.00
3312;DHT22;1668;49.648;8.570;2023-02-28T06:36:13;-1.30;1.00
3312;DHT22;1668;49.648;8.570;2023-02-28T06:38:42;-1.30;1.00
3312;DHT22;1668;49.648;8.570;2023-02-28T06:41:09;-1.20;1.00
3312;DHT22;1668;49.648;8.570;2023-02-28T06:43:38;-1.20;1.00
3312;DHT22;1668;49.648;8.570;2023-02-28T06:46:07;-1.20;1.00
3312;DHT22;1668;49.648;8.570;2023-02-28T06:48:34;-1.20;1.00
3312;DHT22;1668;49.648;8.570;2023-02-28T06:51:03;-1.10;1.00
3312;DHT22;1668;49.648;8.570;2023-02-28T06:53:30;-1.10;1.00
3312;DHT22;1668;49.648;8.570;2023-02-28T06:55:58;-1.10;1.00
3312;DHT22;1668;49.648;8.570;2023-02-28T06:58:25;-1.10;1.00
3312;DHT22;1668;49.648;8.570;2023-02-28T07:00:52;-1.00;1.00
3312;DHT22;1668;49.648;8.570;2023-02-28T07:03:19;-1.00;1.00
3312;DHT22;1668;49.648;8.570;2023-02-28T07:05:53;-0.90;1.00
3312;DHT22;1668;49.648;8.570;2023-02-28T07:08:22;-0.90;1.00
3312;DHT22;1668;49.648;8.570;2023-02-28T07:10:51;-0.80;1.00
3312;DHT22;1668;49.648;8.570;2023-02-28T07:13:20;-0.80;1.00
3312;DHT22;1668;49.648;8.570;2023-02-28T07:15:53;-0.70;1.00
3312;DHT22;1668;49.648;8.570;2023-02-28T07:18:20;-0.60;1.00
3312;DHT22;1668;49.648;8.570;2023-02-28T07:20:47;-0.60;1.00
3312;DHT22;1668;49.648;8.570;2023-02-28T07:23:14;-0.50;1.00
3312;DHT22;1668;49.648;8.570;2023-02-28T07:25:41;-0.40;1.00
3312;DHT22;1668;49.648;8.570;2023-02-28T07:28:08;-0.40;1.00
3312;DHT22;1668;49.648;8.570;2023-02-28T07:30:36;-0.30;99.90
3312;DHT22;1668;49.648;8.570;2023-02-28T07:33:03;-0.30;99.90
3312;DHT22;1668;49.648;8.570;2023-02-28T07:35:30;-0.20;99.90
3312;DHT22;1668;49.648;8.570;2023-02-28T07:37:57;-0.10;99.90
3312;DHT22;1668;49.648;8.570;2023-02-28T07:40:24;-0.10;99.90
3312;DHT22;1668;49.648;8.570;2023-02-28T07:42:51;0.00;99.90
3312;DHT22;1668;49.648;8.570;2023-02-28T07:45:18;0.10;99.90
3312;DHT22;1668;49.648;8.570;2023-02-28T07:47:46;0.10;99.90
3312;DHT22;1668;49.648;8.570;2023-02-28T07:50:15;0.20;99.90
3312;DHT22;1668;49.648;8.570;2023-02-28T07:52:42;0.30;80.70
3312;DHT22;1668;49.648;8.570;2023-02-28T07:55:10;0.30;76.10
3312;DHT22;1668;49.648;8.570;2023-02-28T07:57:37;0.40;87.40
3312;DHT22;1668;49.648;8.570;2023-02-28T08:00:06;0.50;35.30
3312;DHT22;1668;49.648;8.570;2023-02-28T08:05:58;0.70;1.00
3312;DHT22;1668;49.648;8.570;2023-02-28T08:08:24;0.80;3.50
3312;DHT22;1668;49.648;8.570;2023-02-28T08:10:54;0.90;1.00
3312;DHT22;1668;49.648;8.570;2023-02-28T08:13:21;1.00;1.00
3312;DHT22;1668;49.648;8.570;2023-02-28T08:15:48;1.00;1.00
3312;DHT22;1668;49.648;8.570;2023-02-28T08:18:15;1.10;1.00
3312;DHT22;1668;49.648;8.570;2023-02-28T08:20:41;1.20;1.00
3312;DHT22;1668;49.648;8.570;2023-02-28T08:23:09;1.20;1.00
3312;DHT22;1668;49.648;8.570;2023-02-28T08:25:36;1.30;1.00
3312;DHT22;1668;49.648;8.570;2023-02-28T08:28:03;1.30;1.00
3312;DHT22;1668;49.648;8.570;2023-02-28T08:30:30;1.30;1.00
3312;DHT22;1668;49.648;8.570;2023-02-28T08:32:57;1.40;1.00
3312;DHT22;1668;49.648;8.570;2023-02-28T08:35:24;1.40;1.00
3312;DHT22;1668;49.648;8.570;2023-02-28T08:37:51;1.40;1.00
3312;DHT22;1668;49.648;8.570;2023-02-28T08:40:19;1.40;1.00
3312;DHT22;1668;49.648;8.570;2023-02-28T08:42:46;1.50;1.00
3312;DHT22;1668;49.648;8.570;2023-02-28T08:45:14;1.50;1.00
3312;DHT22;1668;49.648;8.570;2023-02-28T08:47:41;1.50;1.00
3312;DHT22;1668;49.648;8.570;2023-02-28T08:50:09;1.60;1.00
3312;DHT22;1668;49.648;8.570;2023-02-28T08:52:35;1.60;1.00
3312;DHT22;1668;49.648;8.570;2023-02-28T08:55:04;1.60;1.00
3312;DHT22;1668;49.648;8.570;2023-02-28T08:57:32;1.60;1.00
3312;DHT22;1668;49.648;8.570;2023-02-28T08:59:59;1.70;1.00
3312;DHT22;1668;49.648;8.570;2023-02-28T09:02:27;1.80;1.00
3312;DHT22;1668;49.648;8.570;2023-02-28T09:04:54;1.90;1.00
3312;DHT22;1668;49.648;8.570;2023-02-28T09:07:21;1.90;1.00
3312;DHT22;1668;49.648;8.570;2023-02-28T09:09:47;1.90;1.00
3312;DHT22;1668;49.648;8.570;2023-02-28T09:12:20;2.00;1.00
3312;DHT22;1668;49.648;8.570;2023-02-28T09:14:48;2.00;1.00
3312;DHT22;1668;49.648;8.570;2023-02-28T09:17:15;2.10;1.00
3312;DHT22;1668;49.648;8.570;2023-02-28T09:19:42;2.10;1.00
3312;DHT22;1668;49.648;8.570;2023-02-28T09:22:10;2.20;1.00
3312;DHT22;1668;49.648;8.570;2023-02-28T09:24:37;2.20;1.00
3312;DHT22;1668;49.648;8.570;2023-02-28T09:27:06;2.30;1.00
3312;DHT22;1668;49.648;8.570;2023-02-28T09:29:33;2.40;1.00
3312;DHT22;1668;49.648;8.570;2023-02-28T09:32:03;2.50;1.00
3312;DHT22;1668;49.648;8.570;2023-02-28T09:34:31;2.50;1.00
3312;DHT22;1668;49.648;8.570;2023-02-28T09:36:58;2.60;1.00
3312;DHT22;1668;49.648;8.570;2023-02-28T09:39:25;2.70;1.00
3312;DHT22;1668;49.648;8.570;2023-02-28T09:41:55;2.70;1.00
3312;DHT22;1668;49.648;8.570;2023-02-28T09:44:26;2.80;1.00
3312;DHT22;1668;49.648;8.570;2023-02-28T09:46:57;2.90;1.00
3312;DHT22;1668;49.648;8.570;2023-02-28T09:49:33;3.00;1.00
3312;DHT22;1668;49.648;8.570;2023-02-28T09:52:03;3.00;1.00
3312;DHT22;1668;49.648;8.570;2023-02-28T09:54:32;3.10;1.00
3312;DHT22;1668;49.648;8.570;2023-02-28T09:57:01;3.20;1.00
3312;DHT22;1668;49.648;8.570;2023-02-28T09:59:40;3.20;1.00
3312;DHT22;1668;49.648;8.570;2023-02-28T10:05:11;3.30;1.00
3312;DHT22;1668;49.648;8.570;2023-02-28T10:07:50;3.40;1.00
3312;DHT22;1668;49.648;8.570;2023-02-28T10:10:24;3.50;1.00
3312;DHT22;1668;49.648;8.570;2023-02-28T10:12:54;3.60;1.00
3312;DHT22;1668;49.648;8.570;2023-02-28T10:15:24;3.70;1.00
3312;DHT22;1668;49.648;8.570;2023-02-28T10:17:56;3.80;1.00
3312;DHT22;1668;49.648;8.570;2023-02-28T10:20:26;3.80;1.00
3312;DHT22;1668;49.648;8.570;2023-02-28T10:23:00;3.90;1.00
3312;DHT22;1668;49.648;8.570;2023-02-28T10:25:34;4.00;1.00
3312;DHT22;1668;49.648;8.570;2023-02-28T10:28:05;4.10;1.00
3312;DHT22;1668;49.648;8.570;2023-02-28T10:30:35;4.20;1.00
3312;DHT22;1668;49.648;8.570;2023-02-28T10:33:03;4.30;1.00
3312;DHT22;1668;49.648;8.570;2023-02-28T10:35:31;4.30;1.00
3312;DHT22;1668;49.648;8.570;2023-02-28T10:38:01;4.50;1.00
3312;DHT22;1668;49.648;8.570;2023-02-28T10:40:36;4.60;1.00
3312;DHT22;1668;49.648;8.570;2023-02-28T10:43:05;4.50;1.00
3312;DHT22;1668;49.648;8.570;2023-02-28T10:45:34;4.50;1.00
3312;DHT22;1668;49.648;8.570;2023-02-28T10:48:04;4.50;1.00
3312;DHT22;1668;49.648;8.570;2023-02-28T10:50:43;4.60;1.00
3312;DHT22;1668;49.648;8.570;2023-02-28T10:53:30;4.60;1.00
3312;DHT22;1668;49.648;8.570;2023-02-28T10:55:59;4.60;1.00
3312;DHT22;1668;49.648;8.570;2023-02-28T10:58:28;4.70;1.00
3312;DHT22;1668;49.648;8.570;2023-02-28T11:00:56;4.70;1.00
3312;DHT22;1668;49.648;8.570;2023-02-28T11:03:25;4.90;1.00
3312;DHT22;1668;49.648;8.570;2023-02-28T11:05:53;4.90;1.00
3312;DHT22;1668;49.648;8.570;2023-02-28T11:08:20;4.90;1.00
3312;DHT22;1668;49.648;8.570;2023-02-28T11:10:53;4.80;1.00
3312;DHT22;1668;49.648;8.570;2023-02-28T11:13:21;4.90;1.00
3312;DHT22;1668;49.648;8.570;2023-02-28T11:15:53;4.90;1.00
3312;DHT22;1668;49.648;8.570;2023-02-28T11:18:23;5.10;1.00
3312;DHT22;1668;49.648;8.570;2023-02-28T11:20:54;5.10;1.00
3312;DHT22;1668;49.648;8.570;2023-02-28T11:23:25;5.20;1.00
3312;DHT22;1668;49.648;8.570;2023-02-28T11:25:55;5.40;1.00
3312;DHT22;1668;49.648;8.570;2023-02-28T11:28:26;5.30;1.00
3312;DHT22;1668;49.648;8.570;2023-02-28T11:31:05;5.40;1.00
3312;DHT22;1668;49.648;8.570;2023-02-28T11:33:39;5.80;1.00
3312;DHT22;1668;49.648;8.570;2023-02-28T11:36:12;5.90;1.00
3312;DHT22;1668;49.648;8.570;2023-02-28T11:38:40;5.70;1.00
3312;DHT22;1668;49.648;8.570;2023-02-28T11:41:30;5.90;1.00
3312;DHT22;1668;49.648;8.570;2023-02-28T11:44:18;5.90;1.00
3312;DHT22;1668;49.648;8.570;2023-02-28T11:46:50;5.90;1.00
3312;DHT22;1668;49.648;8.570;2023-02-28T11:49:30;5.90;1.00
3312;DHT22;1668;49.648;8.570;2023-02-28T11:52:09;6.10;1.00
3312;DHT22;1668;49.648;8.570;2023-02-28T11:54:50;6.30;1.00
3312;DHT22;1668;49.648;8.570;2023-02-28T11:57:35;6.20;1.00
3312;DHT22;1668;49.648;8.570;2023-02-28T12:00:15;6.40;1.00
3312;DHT22;1668;49.648;8.570;2023-02-28T12:02:59;6.40;1.00
3312;DHT22;1668;49.648;8.570;2023-02-28T12:05:33;6.50;1.00
3312;DHT22;1668;49.648;8.570;2023-02-28T12:08:22;6.70;1.00
3312;DHT22;1668;49.648;8.570;2023-02-28T12:10:59;6.80;1.00
3312;DHT22;1668;49.648;8.570;2023-02-28T12:13:36;6.80;1.00
3312;DHT22;1668;49.648;8.570;2023-02-28T12:16:19;6.90;1.00
3312;DHT22;1668;49.648;8.570;2023-02-28T12:18:57;7.00;1.00
3312;DHT22;1668;49.648;8.570;2023-02-28T12:21:34;6.80;1.00
3312;DHT22;1668;49.648;8.570;2023-02-28T12:24:18;6.90;1.00
3312;DHT22;1668;49.648;8.570;2023-02-28T12:26:51;6.80;1.00
3312;DHT22;1668;49.648;8.570;2023-02-28T12:29:21;6.90;1.00
3312;DHT22;1668;49.648;8.570;2023-02-28T12:31:51;6.90;1.00
3312;DHT22;1668;49.648;8.570;2023-02-28T12:34:22;6.90;1.00
3312;DHT22;1668;49.648;8.570;2023-02-28T12:36:52;7.10;1.00
3312;DHT22;1668;49.648;8.570;2023-02-28T12:39:25;7.30;1.00
3312;DHT22;1668;49.648;8.570;2023-02-28T12:41:54;7.30;1.00
3312;DHT22;1668;49.648;8.570;2023-02-28T12:44:28;7.30;1.00
3312;DHT22;1668;49.648;8.570;2023-02-28T12:47:00;7.30;1.00
3312;DHT22;1668;49.648;8.570;2023-02-28T12:49:33;7.40;1.00
3312;DHT22;1668;49.648;8.570;2023-02-28T12:52:01;7.50;1.00
3312;DHT22;1668;49.648;8.570;2023-02-28T12:54:35;7.40;1.00
3312;DHT22;1668;49.648;8.570;2023-02-28T12:57:11;7.30;1.00
3312;DHT22;1668;49.648;8.570;2023-02-28T12:59:42;7.10;1.00
3312;DHT22;1668;49.648;8.570;2023-02-28T13:02:58;7.30;1.00
3312;DHT22;1668;49.648;8.570;2023-02-28T13:09:02;7.50;1.00
3312;DHT22;1668;49.648;8.570;2023-02-28T13:11:33;7.30;1.00
3312;DHT22;1668;49.648;8.570;2023-02-28T13:14:16;7.30;1.00
3312;DHT22;1668;49.648;8.570;2023-02-28T13:16:59;7.30;1.00
3312;DHT22;1668;49.648;8.570;2023-02-28T13:19:28;7.20;1.00
3312;DHT22;1668;49.648;8.570;2023-02-28T13:21:56;7.10;1.00
3312;DHT22;1668;49.648;8.570;2023-02-28T13:24:40;7.10;1.00
3312;DHT22;1668;49.648;8.570;2023-02-28T13:27:22;7.10;1.00
3312;DHT22;1668;49.648;8.570;2023-02-28T13:29:51;7.10;1.00
3312;DHT22;1668;49.648;8.570;2023-02-28T13:32:30;7.10;1.00
3312;DHT22;1668;49.648;8.570;2023-02-28T13:38:23;7.00;1.00
3312;DHT22;1668;49.648;8.570;2023-02-28T13:40:50;6.80;1.00
3312;DHT22;1668;49.648;8.570;2023-02-28T13:43:18;6.80;1.00
3312;DHT22;1668;49.648;8.570;2023-02-28T13:46:11;6.90;1.00
3312;DHT22;1668;49.648;8.570;2023-02-28T13:48:38;6.80;1.00
3312;DHT22;1668;49.648;8.570;2023-02-28T13:51:30;6.80;1.00
3312;DHT22;1668;49.648;8.570;2023-02-28T13:54:12;6.80;1.00
3312;DHT22;1668;49.648;8.570;2023-02-28T13:56:45;6.70;1.00
3312;DHT22;1668;49.648;8.570;2023-02-28T13:59:23;6.60;1.00
3312;DHT22;1668;49.648;8.570;2023-02-28T14:02:01;6.70;1.00
3312;DHT22;1668;49.648;8.570;2023-02-28T14:04:49;6.70;1.00
3312;DHT22;1668;49.648;8.570;2023-02-28T14:07:21;6.70;1.00
3312;DHT22;1668;49.648;8.570;2023-02-28T14:09:56;6.70;1.00
3312;DHT22;1668;49.648;8.570;2023-02-28T14:15:36;6.60;1.00
3312;DHT22;1668;49.648;8.570;2023-02-28T14:18:16;6.60;1.00
3312;DHT22;1668;49.648;8.570;2023-02-28T14:20:46;6.50;1.00
3312;DHT22;1668;49.648;8.570;2023-02-28T14:23:20;6.60;1.00
3312;DHT22;1668;49.648;8.570;2023-02-28T14:25:58;6.60;1.00
3312;DHT22;1668;49.648;8.570;2023-02-28T14:28:46;6.60;1.00
3312;DHT22;1668;49.648;8.570;2023-02-28T14:31:22;6.70;1.00
3312;DHT22;1668;49.648;8.570;2023-02-28T14:34:16;6.70;1.00
3312;DHT22;1668;49.648;8.570;2023-02-28T14:36:45;6.60;1.00
3312;DHT22;1668;49.648;8.570;2023-02-28T14:39:14;6.60;1.00
3312;DHT22;1668;49.648;8.570;2023-02-28T14:41:43;6.80;1.00
3312;DHT22;1668;49.648;8.570;2023-02-28T14:44:15;6.90;1.00
3312;DHT22;1668;49.648;8.570;2023-02-28T14:46:45;7.00;1.00
3312;DHT22;1668;49.648;8.570;2023-02-28T14:49:24;7.10;1.00
3312;DHT22;1668;49.648;8.570;2023-02-28T14:52:03;7.30;1.00
3312;DHT22;1668;49.648;8.570;2023-02-28T14:54:32;7.50;1.00
3312;DHT22;1668;49.648;8.570;2023-02-28T14:56:59;7.70;1.00
3312;DHT22;1668;49.648;8.570;2023-02-28T14:59:28;7.70;1.00
3312;DHT22;1668;49.648;8.570;2023-02-28T15:02:17;7.70;1.00
3312;DHT22;1668;49.648;8.570;2023-02-28T15:04:52;7.60;1.00
3312;DHT22;1668;49.648;8.570;2023-02-28T15:07:19;8.10;1.00
3312;DHT22;1668;49.648;8.570;2023-02-28T15:10:07;8.30;1.00
3312;DHT22;1668;49.648;8.570;2023-02-28T15:12:35;8.70;1.00
3312;DHT22;1668;49.648;8.570;2023-02-28T15:15:02;8.90;1.00
3312;DHT22;1668;49.648;8.570;2023-02-28T15:17:31;8.90;1.00
3312;DHT22;1668;49.648;8.570;2023-02-28T15:19:58;9.00;1.00
3312;DHT22;1668;49.648;8.570;2023-02-28T15:22:31;9.20;1.00
3312;DHT22;1668;49.648;8.570;2023-02-28T15:25:02;9.20;1.00
3312;DHT22;1668;49.648;8.570;2023-02-28T15:27:32;8.90;1.00
3312;DHT22;1668;49.648;8.570;2023-02-28T15:30:05;8.40;1.00
3312;DHT22;1668;49.648;8.570;2023-02-28T15:32:35;8.20;1.00
3312;DHT22;1668;49.648;8.570;2023-02-28T15:35:19;8.10;1.00
3312;DHT22;1668;49.648;8.570;2023-02-28T15:37:47;7.80;1.00
3312;DHT22;1668;49.648;8.570;2023-02-28T15:40:23;7.70;1.00
3312;DHT22;1668;49.648;8.570;2023-02-28T15:43:04;7.60;1.00
3312;DHT22;1668;49.648;8.570;2023-02-28T15:45:41;7.60;1.00
3312;DHT22;1668;49.648;8.570;2023-02-28T15:48:18;7.40;1.00
3312;DHT22;1668;49.648;8.570;2023-02-28T15:50:49;7.40;1.00
3312;DHT22;1668;49.648;8.570;2023-02-28T15:53:19;7.30;1.00
3312;DHT22;1668;49.648;8.570;2023-02-28T15:55:53;7.10;1.00
3312;DHT22;1668;49.648;8.570;2023-02-28T15:58:22;7.10;1.00
3312;DHT22;1668;49.648;8.570;2023-02-28T16:03:46;7.00;1.00
3312;DHT22;1668;49.648;8.570;2023-02-28T16:06:33;7.00;1.00
3312;DHT22;1668;49.648;8.570;2023-02-28T16:09:00;6.80;1.00
3312;DHT22;1668;49.648;8.570;2023-02-28T16:11:28;6.70;1.00
3312;DHT22;1668;49.648;8.570;2023-02-28T16:13:56;6.70;1.00
3312;DHT22;1668;49.648;8.570;2023-02-28T16:16:25;6.70;1.00
3312;DHT22;1668;49.648;8.570;2023-02-28T16:18:53;6.60;1.00
3312;DHT22;1668;49.648;8.570;2023-02-28T16:21:21;6.50;1.00
3312;DHT22;1668;49.648;8.570;2023-02-28T16:23:48;6.50;1.00
3312;DHT22;1668;49.648;8.570;2023-02-28T16:26:19;6.40;1.00
3312;DHT22;1668;49.648;8.570;2023-02-28T16:28:47;6.30;1.00
3312;DHT22;1668;49.648;8.570;2023-02-28T16:31:14;6.30;1.00
3312;DHT22;1668;49.648;8.570;2023-02-28T16:33:43;6.30;1.00
3312;DHT22;1668;49.648;8.570;2023-02-28T16:36:14;6.20;1.00
3312;DHT22;1668;49.648;8.570;2023-02-28T16:38:41;6.10;1.00
3312;DHT22;1668;49.648;8.570;2023-02-28T16:41:12;6.20;1.00
3312;DHT22;1668;49.648;8.570;2023-02-28T16:43:43;6.10;1.00
3312;DHT22;1668;49.648;8.570;2023-02-28T16:46:11;6.10;1.00
3312;DHT22;1668;49.648;8.570;2023-02-28T16:48:38;6.10;1.00
3312;DHT22;1668;49.648;8.570;2023-02-28T16:51:06;6.00;1.00
3312;DHT22;1668;49.648;8.570;2023-02-28T16:53:34;6.00;1.00
3312;DHT22;1668;49.648;8.570;2023-02-28T16:56:01;5.90;1.00
3312;DHT22;1668;49.648;8.570;2023-02-28T16:58:28;5.90;1.00
3312;DHT22;1668;49.648;8.570;2023-02-28T17:00:55;5.80;1.00
3312;DHT22;1668;49.648;8.570;2023-02-28T17:03:23;5.80;1.00
3312;DHT22;1668;49.648;8.570;2023-02-28T17:05:50;5.80;1.00
3312;DHT22;1668;49.648;8.570;2023-02-28T17:08:17;5.80;1.00
3312;DHT22;1668;49.648;8.570;2023-02-28T17:10:46;5.70;1.00
3312;DHT22;1668;49.648;8.570;2023-02-28T17:13:12;5.70;1.00
3312;DHT22;1668;49.648;8.570;2023-02-28T17:15:40;5.70;1.00
3312;DHT22;1668;49.648;8.570;2023-02-28T17:18:08;5.60;1.00
3312;DHT22;1668;49.648;8.570;2023-02-28T17:20:40;5.60;1.00
3312;DHT22;1668;49.648;8.570;2023-02-28T17:23:08;5.50;1.00
3312;DHT22;1668;49.648;8.570;2023-02-28T17:25:34;5.50;1.00
3312;DHT22;1668;49.648;8.570;2023-02-28T17:28:03;5.50;1.00